sensor_id;sensor_type;location;lat;lon;timestamp;P1;durP1;ratioP1;P2;durP2;ratioP2
43676;SDS011;29275;48.800;18.102;2023-12-04T00:02:28;30.00;;;16.67;;
43676;SDS011;29275;48.800;18.102;2023-12-04T00:05:31;34.45;;;18.17;;
43676;SDS011;29275;48.800;18.102;2023-12-04T00:08:36;34.95;;;18.10;;
43676;SDS011;29275;48.800;18.102;2023-12-04T00:11:40;40.17;;;20.50;;
43676;SDS011;29275;48.800;18.102;2023-12-04T00:14:45;54.13;;;31.10;;
43676;SDS011;29275;48.800;18.102;2023-12-04T00:17:48;41.47;;;20.50;;
43676;SDS011;29275;48.800;18.102;2023-12-04T00:20:52;34.92;;;19.48;;
43676;SDS011;29275;48.800;18.102;2023-12-04T00:23:55;35.53;;;19.20;;
43676;SDS011;29275;48.800;18.102;2023-12-04T00:26:57;38.78;;;20.40;;
43676;SDS011;29275;48.800;18.102;2023-12-04T00:30:00;33.42;;;18.42;;
43676;SDS011;29275;48.800;18.102;2023-12-04T00:33:06;33.05;;;18.13;;
43676;SDS011;29275;48.800;18.102;2023-12-04T00:36:10;34.72;;;17.45;;
43676;SDS011;29275;48.800;18.102;2023-12-04T00:39:13;37.45;;;19.33;;
43676;SDS011;29275;48.800;18.102;2023-12-04T00:42:17;33.60;;;19.35;;
43676;SDS011;29275;48.800;18.102;2023-12-04T00:45:20;35.92;;;18.60;;
43676;SDS011;29275;48.800;18.102;2023-12-04T00:48:24;32.75;;;18.92;;
43676;SDS011;29275;48.800;18.102;2023-12-04T00:51:27;43.03;;;20.13;;
43676;SDS011;29275;48.800;18.102;2023-12-04T00:54:31;36.92;;;20.48;;
43676;SDS011;29275;48.800;18.102;2023-12-04T00:57:34;40.60;;;21.00;;
43676;SDS011;29275;48.800;18.102;2023-12-04T01:00:38;37.08;;;19.95;;
43676;SDS011;29275;48.800;18.102;2023-12-04T01:03:41;42.33;;;22.65;;
43676;SDS011;29275;48.800;18.102;2023-12-04T01:06:45;48.78;;;24.52;;
43676;SDS011;29275;48.800;18.102;2023-12-04T01:09:48;46.95;;;23.88;;
43676;SDS011;29275;48.800;18.102;2023-12-04T01:12:51;38.50;;;20.65;;
43676;SDS011;29275;48.800;18.102;2023-12-04T01:15:54;50.88;;;26.52;;
43676;SDS011;29275;48.800;18.102;2023-12-04T01:18:58;50.33;;;25.50;;
43676;SDS011;29275;48.800;18.102;2023-12-04T01:22:02;45.75;;;24.05;;
43676;SDS011;29275;48.800;18.102;2023-12-04T01:25:05;41.95;;;23.70;;
43676;SDS011;29275;48.800;18.102;2023-12-04T01:28:09;39.38;;;21.55;;
43676;SDS011;29275;48.800;18.102;2023-12-04T01:31:14;36.80;;;20.45;;
43676;SDS011;29275;48.800;18.102;2023-12-04T01:34:18;32.22;;;18.33;;
43676;SDS011;29275;48.800;18.102;2023-12-04T01:37:21;37.03;;;18.27;;
43676;SDS011;29275;48.800;18.102;2023-12-04T01:40:24;28.77;;;17.00;;
43676;SDS011;29275;48.800;18.102;2023-12-04T01:43:28;33.40;;;17.48;;
43676;SDS011;29275;48.800;18.102;2023-12-04T01:46:32;29.40;;;17.10;;
43676;SDS011;29275;48.800;18.102;2023-12-04T01:49:36;35.30;;;17.92;;
43676;SDS011;29275;48.800;18.102;2023-12-04T01:52:39;29.98;;;16.63;;
43676;SDS011;29275;48.800;18.102;2023-12-04T01:55:43;34.63;;;18.52;;
43676;SDS011;29275;48.800;18.102;2023-12-04T01:58:47;37.70;;;17.75;;
43676;SDS011;29275;48.800;18.102;2023-12-04T02:01:50;29.73;;;16.30;;
43676;SDS011;29275;48.800;18.102;2023-12-04T02:04:55;29.38;;;16.02;;
43676;SDS011;29275;48.800;18.102;2023-12-04T02:07:59;25.67;;;14.55;;
43676;SDS011;29275;48.800;18.102;2023-12-04T02:11:04;27.77;;;14.43;;
43676;SDS011;29275;48.800;18.102;2023-12-04T02:14:07;26.00;;;14.27;;
43676;SDS011;29275;48.800;18.102;2023-12-04T02:17:12;22.83;;;11.95;;
43676;SDS011;29275;48.800;18.102;2023-12-04T02:20:16;25.35;;;13.55;;
43676;SDS011;29275;48.800;18.102;2023-12-04T02:23:20;29.65;;;15.25;;
43676;SDS011;29275;48.800;18.102;2023-12-04T02:26:24;31.50;;;15.63;;
43676;SDS011;29275;48.800;18.102;2023-12-04T02:29:32;27.00;;;15.20;;
43676;SDS011;29275;48.800;18.102;2023-12-04T02:32:42;26.73;;;15.35;;
43676;SDS011;29275;48.800;18.102;2023-12-04T02:35:50;33.05;;;16.77;;
43676;SDS011;29275;48.800;18.102;2023-12-04T02:38:53;25.13;;;14.32;;
43676;SDS011;29275;48.800;18.102;2023-12-04T02:42:01;26.60;;;14.30;;
43676;SDS011;29275;48.800;18.102;2023-12-04T02:45:04;23.77;;;13.43;;
43676;SDS011;29275;48.800;18.102;2023-12-04T02:48:08;24.55;;;12.90;;
43676;SDS011;29275;48.800;18.102;2023-12-04T02:51:13;24.85;;;13.73;;
43676;SDS011;29275;48.800;18.102;2023-12-04T02:54:16;23.25;;;13.73;;
43676;SDS011;29275;48.800;18.102;2023-12-04T02:57:19;23.13;;;11.70;;
43676;SDS011;29275;48.800;18.102;2023-12-04T03:00:23;20.08;;;11.18;;
43676;SDS011;29275;48.800;18.102;2023-12-04T03:03:27;22.83;;;13.25;;
43676;SDS011;29275;48.800;18.102;2023-12-04T03:06:31;23.05;;;13.18;;
43676;SDS011;29275;48.800;18.102;2023-12-04T03:09:35;23.38;;;13.23;;
43676;SDS011;29275;48.800;18.102;2023-12-04T03:12:50;24.42;;;12.77;;
43676;SDS011;29275;48.800;18.102;2023-12-04T03:15:54;25.17;;;13.70;;
43676;SDS011;29275;48.800;18.102;2023-12-04T03:18:57;27.20;;;14.75;;
43676;SDS011;29275;48.800;18.102;2023-12-04T03:22:01;26.02;;;13.95;;
43676;SDS011;29275;48.800;18.102;2023-12-04T03:25:05;21.65;;;12.77;;
43676;SDS011;29275;48.800;18.102;2023-12-04T03:28:09;25.73;;;13.20;;
43676;SDS011;29275;48.800;18.102;2023-12-04T03:31:12;25.63;;;13.20;;
43676;SDS011;29275;48.800;18.102;2023-12-04T03:34:16;24.65;;;12.52;;
43676;SDS011;29275;48.800;18.102;2023-12-04T03:37:19;20.65;;;12.07;;
43676;SDS011;29275;48.800;18.102;2023-12-04T03:40:24;21.98;;;11.88;;
43676;SDS011;29275;48.800;18.102;2023-12-04T03:43:26;23.95;;;13.98;;
43676;SDS011;29275;48.800;18.102;2023-12-04T03:46:30;24.60;;;13.82;;
43676;SDS011;29275;48.800;18.102;2023-12-04T03:49:33;27.80;;;15.23;;
43676;SDS011;29275;48.800;18.102;2023-12-04T03:52:37;24.33;;;13.57;;
43676;SDS011;29275;48.800;18.102;2023-12-04T03:55:40;21.48;;;12.93;;
43676;SDS011;29275;48.800;18.102;2023-12-04T03:58:43;23.25;;;12.82;;
43676;SDS011;29275;48.800;18.102;2023-12-04T04:01:46;29.33;;;14.00;;
43676;SDS011;29275;48.800;18.102;2023-12-04T04:04:49;25.00;;;14.20;;
43676;SDS011;29275;48.800;18.102;2023-12-04T04:07:53;30.88;;;15.13;;
43676;SDS011;29275;48.800;18.102;2023-12-04T04:10:56;22.02;;;12.93;;
43676;SDS011;29275;48.800;18.102;2023-12-04T04:14:00;20.85;;;13.20;;
43676;SDS011;29275;48.800;18.102;2023-12-04T04:17:04;23.92;;;11.57;;
43676;SDS011;29275;48.800;18.102;2023-12-04T04:20:07;26.50;;;14.68;;
43676;SDS011;29275;48.800;18.102;2023-12-04T04:23:11;24.27;;;13.07;;
43676;SDS011;29275;48.800;18.102;2023-12-04T04:26:15;25.42;;;14.35;;
43676;SDS011;29275;48.800;18.102;2023-12-04T04:29:18;24.80;;;13.52;;
43676;SDS011;29275;48.800;18.102;2023-12-04T04:32:21;28.38;;;14.38;;
43676;SDS011;29275;48.800;18.102;2023-12-04T04:35:25;24.75;;;14.50;;
43676;SDS011;29275;48.800;18.102;2023-12-04T04:38:28;24.50;;;13.23;;
43676;SDS011;29275;48.800;18.102;2023-12-04T04:41:32;25.17;;;13.90;;
43676;SDS011;29275;48.800;18.102;2023-12-04T04:44:37;22.60;;;13.55;;
43676;SDS011;29275;48.800;18.102;2023-12-04T04:47:40;23.13;;;12.88;;
43676;SDS011;29275;48.800;18.102;2023-12-04T04:50:43;23.92;;;12.88;;
43676;SDS011;29275;48.800;18.102;2023-12-04T04:53:47;25.23;;;12.90;;
43676;SDS011;29275;48.800;18.102;2023-12-04T04:56:51;23.65;;;13.02;;
43676;SDS011;29275;48.800;18.102;2023-12-04T04:59:55;21.10;;;13.18;;
43676;SDS011;29275;48.800;18.102;2023-12-04T05:02:58;22.90;;;12.18;;
43676;SDS011;29275;48.800;18.102;2023-12-04T05:06:03;20.92;;;12.65;;
43676;SDS011;29275;48.800;18.102;2023-12-04T05:09:06;22.75;;;13.02;;
43676;SDS011;29275;48.800;18.102;2023-12-04T05:12:10;25.08;;;13.23;;
43676;SDS011;29275;48.800;18.102;2023-12-04T05:15:13;19.83;;;11.35;;
43676;SDS011;29275;48.800;18.102;2023-12-04T05:18:17;23.67;;;12.27;;
43676;SDS011;29275;48.800;18.102;2023-12-04T05:21:20;22.00;;;12.32;;
43676;SDS011;29275;48.800;18.102;2023-12-04T05:24:25;20.90;;;11.38;;
43676;SDS011;29275;48.800;18.102;2023-12-04T05:27:28;22.90;;;12.48;;
43676;SDS011;29275;48.800;18.102;2023-12-04T05:30:32;18.98;;;11.05;;
43676;SDS011;29275;48.800;18.102;2023-12-04T05:33:37;21.17;;;11.80;;
43676;SDS011;29275;48.800;18.102;2023-12-04T05:36:48;21.75;;;12.18;;
43676;SDS011;29275;48.800;18.102;2023-12-04T05:39:51;22.05;;;11.65;;
43676;SDS011;29275;48.800;18.102;2023-12-04T05:42:54;22.13;;;12.13;;
43676;SDS011;29275;48.800;18.102;2023-12-04T05:45:57;21.88;;;12.07;;
43676;SDS011;29275;48.800;18.102;2023-12-04T05:49:00;24.55;;;12.48;;
43676;SDS011;29275;48.800;18.102;2023-12-04T05:52:04;21.05;;;11.30;;
43676;SDS011;29275;48.800;18.102;2023-12-04T05:55:08;19.70;;;11.98;;
43676;SDS011;29275;48.800;18.102;2023-12-04T05:58:11;23.17;;;12.30;;
43676;SDS011;29275;48.800;18.102;2023-12-04T06:01:16;24.80;;;13.48;;
43676;SDS011;29275;48.800;18.102;2023-12-04T06:04:19;26.67;;;12.93;;
43676;SDS011;29275;48.800;18.102;2023-12-04T06:07:22;21.52;;;11.75;;
43676;SDS011;29275;48.800;18.102;2023-12-04T06:10:26;21.38;;;12.48;;
43676;SDS011;29275;48.800;18.102;2023-12-04T06:13:31;21.52;;;12.57;;
43676;SDS011;29275;48.800;18.102;2023-12-04T06:16:35;27.10;;;16.35;;
43676;SDS011;29275;48.800;18.102;2023-12-04T06:19:39;27.98;;;15.93;;
43676;SDS011;29275;48.800;18.102;2023-12-04T06:22:43;24.30;;;13.13;;
43676;SDS011;29275;48.800;18.102;2023-12-04T06:25:48;27.80;;;13.70;;
43676;SDS011;29275;48.800;18.102;2023-12-04T06:28:52;28.00;;;14.32;;
43676;SDS011;29275;48.800;18.102;2023-12-04T06:31:55;39.70;;;21.13;;
43676;SDS011;29275;48.800;18.102;2023-12-04T06:35:00;32.80;;;17.52;;
43676;SDS011;29275;48.800;18.102;2023-12-04T06:38:07;36.33;;;18.48;;
43676;SDS011;29275;48.800;18.102;2023-12-04T06:41:12;45.85;;;22.92;;
43676;SDS011;29275;48.800;18.102;2023-12-04T06:44:16;42.25;;;20.02;;
43676;SDS011;29275;48.800;18.102;2023-12-04T06:47:22;47.33;;;22.27;;
43676;SDS011;29275;48.800;18.102;2023-12-04T06:50:26;68.07;;;25.80;;
43676;SDS011;29275;48.800;18.102;2023-12-04T06:53:30;103.75;;;40.10;;
43676;SDS011;29275;48.800;18.102;2023-12-04T06:56:33;53.47;;;26.77;;
43676;SDS011;29275;48.800;18.102;2023-12-04T06:59:38;40.83;;;23.30;;
43676;SDS011;29275;48.800;18.102;2023-12-04T07:02:41;36.58;;;21.50;;
43676;SDS011;29275;48.800;18.102;2023-12-04T07:05:44;37.38;;;20.38;;
43676;SDS011;29275;48.800;18.102;2023-12-04T07:08:47;36.72;;;21.48;;
43676;SDS011;29275;48.800;18.102;2023-12-04T07:11:51;37.28;;;21.10;;
43676;SDS011;29275;48.800;18.102;2023-12-04T07:14:54;41.05;;;22.77;;
43676;SDS011;29275;48.800;18.102;2023-12-04T07:17:58;41.75;;;26.02;;
43676;SDS011;29275;48.800;18.102;2023-12-04T07:24:33;27.95;;;16.33;;
43676;SDS011;29275;48.800;18.102;2023-12-04T07:27:38;31.70;;;16.02;;
43676;SDS011;29275;48.800;18.102;2023-12-04T07:30:41;29.23;;;16.40;;
43676;SDS011;29275;48.800;18.102;2023-12-04T07:33:48;28.52;;;15.55;;
43676;SDS011;29275;48.800;18.102;2023-12-04T07:36:51;28.02;;;14.13;;
43676;SDS011;29275;48.800;18.102;2023-12-04T07:39:55;24.23;;;14.00;;
43676;SDS011;29275;48.800;18.102;2023-12-04T07:42:58;31.98;;;15.82;;
43676;SDS011;29275;48.800;18.102;2023-12-04T07:46:03;23.65;;;13.75;;
43676;SDS011;29275;48.800;18.102;2023-12-04T07:49:06;28.00;;;15.05;;
43676;SDS011;29275;48.800;18.102;2023-12-04T07:52:10;26.77;;;15.50;;
43676;SDS011;29275;48.800;18.102;2023-12-04T07:55:14;28.30;;;15.35;;
43676;SDS011;29275;48.800;18.102;2023-12-04T07:58:18;27.60;;;15.25;;
43676;SDS011;29275;48.800;18.102;2023-12-04T08:01:22;25.52;;;14.63;;
43676;SDS011;29275;48.800;18.102;2023-12-04T08:04:27;27.57;;;15.43;;
43676;SDS011;29275;48.800;18.102;2023-12-04T08:07:30;31.60;;;16.45;;
43676;SDS011;29275;48.800;18.102;2023-12-04T08:10:36;20.67;;;11.00;;
43676;SDS011;29275;48.800;18.102;2023-12-04T08:13:39;23.63;;;12.75;;
43676;SDS011;29275;48.800;18.102;2023-12-04T08:16:43;20.65;;;12.23;;
43676;SDS011;29275;48.800;18.102;2023-12-04T08:19:46;25.83;;;14.23;;
43676;SDS011;29275;48.800;18.102;2023-12-04T08:22:54;29.10;;;15.25;;
43676;SDS011;29275;48.800;18.102;2023-12-04T08:25:57;22.40;;;12.82;;
43676;SDS011;29275;48.800;18.102;2023-12-04T08:29:03;22.95;;;13.82;;
43676;SDS011;29275;48.800;18.102;2023-12-04T08:32:06;26.08;;;14.90;;
43676;SDS011;29275;48.800;18.102;2023-12-04T08:35:10;24.83;;;13.60;;
43676;SDS011;29275;48.800;18.102;2023-12-04T08:38:13;25.50;;;13.95;;
43676;SDS011;29275;48.800;18.102;2023-12-04T08:41:17;25.63;;;14.05;;
43676;SDS011;29275;48.800;18.102;2023-12-04T08:44:22;25.92;;;15.02;;
43676;SDS011;29275;48.800;18.102;2023-12-04T08:47:26;27.58;;;15.27;;
43676;SDS011;29275;48.800;18.102;2023-12-04T08:50:29;24.60;;;14.20;;
43676;SDS011;29275;48.800;18.102;2023-12-04T08:53:32;30.77;;;15.55;;
43676;SDS011;29275;48.800;18.102;2023-12-04T08:56:36;29.70;;;16.65;;
43676;SDS011;29275;48.800;18.102;2023-12-04T08:59:41;27.52;;;14.55;;
43676;SDS011;29275;48.800;18.102;2023-12-04T09:02:51;28.20;;;15.65;;
43676;SDS011;29275;48.800;18.102;2023-12-04T09:06:07;26.00;;;14.98;;
43676;SDS011;29275;48.800;18.102;2023-12-04T09:09:11;24.80;;;13.85;;
43676;SDS011;29275;48.800;18.102;2023-12-04T09:12:15;22.25;;;14.13;;
43676;SDS011;29275;48.800;18.102;2023-12-04T09:15:19;27.88;;;15.30;;
43676;SDS011;29275;48.800;18.102;2023-12-04T09:18:31;25.48;;;14.18;;
43676;SDS011;29275;48.800;18.102;2023-12-04T09:21:43;29.67;;;14.88;;
43676;SDS011;29275;48.800;18.102;2023-12-04T09:24:49;23.35;;;14.77;;
43676;SDS011;29275;48.800;18.102;2023-12-04T09:27:57;28.23;;;15.93;;
43676;SDS011;29275;48.800;18.102;2023-12-04T09:31:01;26.65;;;15.95;;
43676;SDS011;29275;48.800;18.102;2023-12-04T09:34:06;26.90;;;15.75;;
43676;SDS011;29275;48.800;18.102;2023-12-04T09:37:11;29.35;;;15.45;;
43676;SDS011;29275;48.800;18.102;2023-12-04T09:40:15;30.13;;;16.17;;
43676;SDS011;29275;48.800;18.102;2023-12-04T09:43:19;28.30;;;15.32;;
43676;SDS011;29275;48.800;18.102;2023-12-04T09:46:22;29.40;;;16.27;;
43676;SDS011;29275;48.800;18.102;2023-12-04T09:49:26;28.38;;;16.90;;
43676;SDS011;29275;48.800;18.102;2023-12-04T09:52:34;29.13;;;14.77;;
43676;SDS011;29275;48.800;18.102;2023-12-04T09:55:38;26.98;;;15.38;;
43676;SDS011;29275;48.800;18.102;2023-12-04T09:58:41;27.25;;;15.18;;
43676;SDS011;29275;48.800;18.102;2023-12-04T10:01:46;32.03;;;15.32;;
43676;SDS011;29275;48.800;18.102;2023-12-04T10:04:49;25.75;;;15.65;;
43676;SDS011;29275;48.800;18.102;2023-12-04T10:07:54;36.03;;;20.10;;
43676;SDS011;29275;48.800;18.102;2023-12-04T10:10:57;28.67;;;15.38;;
43676;SDS011;29275;48.800;18.102;2023-12-04T10:14:03;26.08;;;15.55;;
43676;SDS011;29275;48.800;18.102;2023-12-04T10:17:15;30.90;;;16.00;;
43676;SDS011;29275;48.800;18.102;2023-12-04T10:20:23;29.17;;;14.60;;
43676;SDS011;29275;48.800;18.102;2023-12-04T10:23:37;25.50;;;13.65;;
43676;SDS011;29275;48.800;18.102;2023-12-04T10:26:49;25.88;;;13.32;;
43676;SDS011;29275;48.800;18.102;2023-12-04T10:29:53;26.67;;;13.95;;
43676;SDS011;29275;48.800;18.102;2023-12-04T10:33:03;20.15;;;12.18;;
43676;SDS011;29275;48.800;18.102;2023-12-04T10:36:11;22.75;;;13.18;;
43676;SDS011;29275;48.800;18.102;2023-12-04T10:39:25;20.50;;;12.35;;
43676;SDS011;29275;48.800;18.102;2023-12-04T10:42:31;21.58;;;12.20;;
43676;SDS011;29275;48.800;18.102;2023-12-04T10:45:34;23.48;;;12.57;;
43676;SDS011;29275;48.800;18.102;2023-12-04T10:48:39;21.30;;;12.00;;
43676;SDS011;29275;48.800;18.102;2023-12-04T10:51:43;23.20;;;11.90;;
43676;SDS011;29275;48.800;18.102;2023-12-04T10:54:49;21.13;;;11.33;;
43676;SDS011;29275;48.800;18.102;2023-12-04T10:57:52;20.67;;;12.10;;
43676;SDS011;29275;48.800;18.102;2023-12-04T11:00:57;20.27;;;11.55;;
43676;SDS011;29275;48.800;18.102;2023-12-04T11:04:07;19.83;;;11.75;;
43676;SDS011;29275;48.800;18.102;2023-12-04T11:07:13;19.92;;;12.73;;
43676;SDS011;29275;48.800;18.102;2023-12-04T11:10:22;23.75;;;12.27;;
43676;SDS011;29275;48.800;18.102;2023-12-04T11:13:32;23.48;;;12.88;;
43676;SDS011;29275;48.800;18.102;2023-12-04T11:19:59;17.58;;;11.15;;
43676;SDS011;29275;48.800;18.102;2023-12-04T11:23:10;19.65;;;11.35;;
43676;SDS011;29275;48.800;18.102;2023-12-04T11:26:17;21.02;;;11.55;;
43676;SDS011;29275;48.800;18.102;2023-12-04T11:29:21;17.13;;;11.05;;
43676;SDS011;29275;48.800;18.102;2023-12-04T11:32:27;19.45;;;11.65;;
43676;SDS011;29275;48.800;18.102;2023-12-04T11:35:32;17.45;;;10.75;;
43676;SDS011;29275;48.800;18.102;2023-12-04T11:38:38;16.83;;;9.85;;
43676;SDS011;29275;48.800;18.102;2023-12-04T11:41:49;22.05;;;11.63;;
43676;SDS011;29275;48.800;18.102;2023-12-04T11:44:56;22.73;;;11.35;;
43676;SDS011;29275;48.800;18.102;2023-12-04T11:48:01;19.63;;;11.32;;
43676;SDS011;29275;48.800;18.102;2023-12-04T11:51:06;22.55;;;12.02;;
43676;SDS011;29275;48.800;18.102;2023-12-04T11:54:15;18.48;;;10.60;;
43676;SDS011;29275;48.800;18.102;2023-12-04T11:57:20;30.08;;;17.10;;
43676;SDS011;29275;48.800;18.102;2023-12-04T12:00:27;19.00;;;11.45;;
43676;SDS011;29275;48.800;18.102;2023-12-04T12:03:31;23.17;;;11.52;;
43676;SDS011;29275;48.800;18.102;2023-12-04T12:06:36;20.85;;;12.18;;
43676;SDS011;29275;48.800;18.102;2023-12-04T12:09:39;19.10;;;10.60;;
43676;SDS011;29275;48.800;18.102;2023-12-04T12:12:43;17.65;;;10.18;;
43676;SDS011;29275;48.800;18.102;2023-12-04T12:15:47;17.52;;;10.48;;
43676;SDS011;29275;48.800;18.102;2023-12-04T12:18:54;16.80;;;10.68;;
43676;SDS011;29275;48.800;18.102;2023-12-04T12:22:01;17.97;;;10.43;;
43676;SDS011;29275;48.800;18.102;2023-12-04T12:25:06;17.55;;;10.25;;
43676;SDS011;29275;48.800;18.102;2023-12-04T12:28:11;18.10;;;10.70;;
43676;SDS011;29275;48.800;18.102;2023-12-04T12:31:14;17.48;;;10.52;;
43676;SDS011;29275;48.800;18.102;2023-12-04T12:34:18;16.73;;;10.10;;
43676;SDS011;29275;48.800;18.102;2023-12-04T12:37:22;15.82;;;9.95;;
43676;SDS011;29275;48.800;18.102;2023-12-04T12:40:27;17.05;;;10.23;;
43676;SDS011;29275;48.800;18.102;2023-12-04T12:43:33;17.70;;;10.77;;
43676;SDS011;29275;48.800;18.102;2023-12-04T12:46:41;17.52;;;11.40;;
43676;SDS011;29275;48.800;18.102;2023-12-04T12:49:50;21.58;;;11.82;;
43676;SDS011;29275;48.800;18.102;2023-12-04T12:52:55;24.98;;;13.50;;
43676;SDS011;29275;48.800;18.102;2023-12-04T12:56:00;19.58;;;11.05;;
43676;SDS011;29275;48.800;18.102;2023-12-04T12:59:12;19.75;;;11.80;;
43676;SDS011;29275;48.800;18.102;2023-12-04T13:02:16;17.83;;;11.15;;
43676;SDS011;29275;48.800;18.102;2023-12-04T13:05:20;19.13;;;11.63;;
43676;SDS011;29275;48.800;18.102;2023-12-04T13:08:24;19.05;;;10.75;;
43676;SDS011;29275;48.800;18.102;2023-12-04T13:11:27;23.30;;;10.43;;
43676;SDS011;29275;48.800;18.102;2023-12-04T13:14:31;18.23;;;9.90;;
43676;SDS011;29275;48.800;18.102;2023-12-04T13:17:35;16.77;;;10.15;;
43676;SDS011;29275;48.800;18.102;2023-12-04T13:20:41;16.23;;;9.73;;
43676;SDS011;29275;48.800;18.102;2023-12-04T13:23:45;16.13;;;9.02;;
43676;SDS011;29275;48.800;18.102;2023-12-04T13:26:50;14.73;;;9.70;;
43676;SDS011;29275;48.800;18.102;2023-12-04T13:29:53;15.15;;;9.25;;
43676;SDS011;29275;48.800;18.102;2023-12-04T13:32:58;16.30;;;9.98;;
43676;SDS011;29275;48.800;18.102;2023-12-04T13:36:01;19.48;;;10.45;;
43676;SDS011;29275;48.800;18.102;2023-12-04T13:39:08;15.93;;;8.80;;
43676;SDS011;29275;48.800;18.102;2023-12-04T13:42:19;18.08;;;10.50;;
43676;SDS011;29275;48.800;18.102;2023-12-04T13:45:41;17.55;;;9.70;;
43676;SDS011;29275;48.800;18.102;2023-12-04T13:48:45;18.75;;;10.38;;
43676;SDS011;29275;48.800;18.102;2023-12-04T13:51:48;15.25;;;9.85;;
43676;SDS011;29275;48.800;18.102;2023-12-04T13:54:52;16.13;;;10.07;;
43676;SDS011;29275;48.800;18.102;2023-12-04T13:58:08;14.93;;;9.93;;
43676;SDS011;29275;48.800;18.102;2023-12-04T14:01:36;20.58;;;10.45;;
43676;SDS011;29275;48.800;18.102;2023-12-04T14:04:49;17.67;;;9.77;;
43676;SDS011;29275;48.800;18.102;2023-12-04T14:07:54;16.40;;;9.43;;
43676;SDS011;29275;48.800;18.102;2023-12-04T14:10:58;16.58;;;9.02;;
43676;SDS011;29275;48.800;18.102;2023-12-04T14:14:06;19.48;;;10.68;;
43676;SDS011;29275;48.800;18.102;2023-12-04T14:17:18;21.90;;;11.68;;
43676;SDS011;29275;48.800;18.102;2023-12-04T14:20:25;16.48;;;10.32;;
43676;SDS011;29275;48.800;18.102;2023-12-04T14:23:29;19.33;;;11.30;;
43676;SDS011;29275;48.800;18.102;2023-12-04T14:26:34;19.98;;;10.95;;
43676;SDS011;29275;48.800;18.102;2023-12-04T14:29:37;23.17;;;14.23;;
43676;SDS011;29275;48.800;18.102;2023-12-04T14:32:50;23.88;;;13.30;;
43676;SDS011;29275;48.800;18.102;2023-12-04T14:35:53;25.10;;;16.25;;
43676;SDS011;29275;48.800;18.102;2023-12-04T14:39:00;18.70;;;11.15;;
43676;SDS011;29275;48.800;18.102;2023-12-04T14:42:05;24.00;;;15.60;;
43676;SDS011;29275;48.800;18.102;2023-12-04T14:45:09;17.63;;;10.68;;
43676;SDS011;29275;48.800;18.102;2023-12-04T14:48:13;18.20;;;11.05;;
43676;SDS011;29275;48.800;18.102;2023-12-04T14:51:16;16.75;;;10.30;;
43676;SDS011;29275;48.800;18.102;2023-12-04T14:54:25;16.88;;;9.75;;
43676;SDS011;29275;48.800;18.102;2023-12-04T14:57:51;21.42;;;11.57;;
43676;SDS011;29275;48.800;18.102;2023-12-04T15:01:12;16.55;;;10.15;;
43676;SDS011;29275;48.800;18.102;2023-12-04T15:04:40;21.77;;;11.48;;
43676;SDS011;29275;48.800;18.102;2023-12-04T15:07:56;32.45;;;15.95;;
43676;SDS011;29275;48.800;18.102;2023-12-04T15:11:36;19.48;;;11.90;;
43676;SDS011;29275;48.800;18.102;2023-12-04T15:14:58;15.25;;;9.20;;
43676;SDS011;29275;48.800;18.102;2023-12-04T15:18:24;17.58;;;9.98;;
43676;SDS011;29275;48.800;18.102;2023-12-04T15:21:46;16.70;;;9.48;;
43676;SDS011;29275;48.800;18.102;2023-12-04T15:24:52;19.98;;;10.90;;
43676;SDS011;29275;48.800;18.102;2023-12-04T15:27:59;19.27;;;9.77;;
43676;SDS011;29275;48.800;18.102;2023-12-04T15:31:07;19.85;;;11.40;;
43676;SDS011;29275;48.800;18.102;2023-12-04T15:34:10;21.55;;;12.15;;
43676;SDS011;29275;48.800;18.102;2023-12-04T15:37:15;20.27;;;11.45;;
43676;SDS011;29275;48.800;18.102;2023-12-04T15:40:18;20.40;;;11.30;;
43676;SDS011;29275;48.800;18.102;2023-12-04T15:43:22;18.75;;;10.95;;
43676;SDS011;29275;48.800;18.102;2023-12-04T15:46:28;17.23;;;10.30;;
43676;SDS011;29275;48.800;18.102;2023-12-04T15:49:36;18.85;;;10.02;;
43676;SDS011;29275;48.800;18.102;2023-12-04T15:52:42;19.85;;;10.45;;
43676;SDS011;29275;48.800;18.102;2023-12-04T15:56:08;23.05;;;12.13;;
43676;SDS011;29275;48.800;18.102;2023-12-04T15:59:26;22.58;;;13.25;;
43676;SDS011;29275;48.800;18.102;2023-12-04T16:02:33;20.55;;;12.00;;
43676;SDS011;29275;48.800;18.102;2023-12-04T16:05:38;16.48;;;9.25;;
43676;SDS011;29275;48.800;18.102;2023-12-04T16:08:44;14.68;;;8.88;;
43676;SDS011;29275;48.800;18.102;2023-12-04T16:11:48;13.73;;;7.95;;
43676;SDS011;29275;48.800;18.102;2023-12-04T16:14:52;17.75;;;8.05;;
43676;SDS011;29275;48.800;18.102;2023-12-04T16:17:55;12.75;;;7.63;;
43676;SDS011;29275;48.800;18.102;2023-12-04T16:21:00;13.70;;;7.40;;
43676;SDS011;29275;48.800;18.102;2023-12-04T16:24:03;12.35;;;7.60;;
43676;SDS011;29275;48.800;18.102;2023-12-04T16:27:08;20.08;;;10.07;;
43676;SDS011;29275;48.800;18.102;2023-12-04T16:30:14;17.67;;;8.88;;
43676;SDS011;29275;48.800;18.102;2023-12-04T16:33:18;19.83;;;11.05;;
43676;SDS011;29275;48.800;18.102;2023-12-04T16:36:26;21.30;;;11.07;;
43676;SDS011;29275;48.800;18.102;2023-12-04T16:39:30;20.17;;;10.13;;
43676;SDS011;29275;48.800;18.102;2023-12-04T16:42:33;21.90;;;11.60;;
43676;SDS011;29275;48.800;18.102;2023-12-04T16:45:37;16.73;;;9.50;;
43676;SDS011;29275;48.800;18.102;2023-12-04T16:48:41;21.98;;;10.68;;
43676;SDS011;29275;48.800;18.102;2023-12-04T16:51:44;19.85;;;9.63;;
43676;SDS011;29275;48.800;18.102;2023-12-04T16:54:49;17.33;;;9.73;;
43676;SDS011;29275;48.800;18.102;2023-12-04T16:57:54;14.88;;;9.02;;
43676;SDS011;29275;48.800;18.102;2023-12-04T17:01:02;14.73;;;8.68;;
43676;SDS011;29275;48.800;18.102;2023-12-04T17:04:06;14.52;;;8.18;;
43676;SDS011;29275;48.800;18.102;2023-12-04T17:07:11;15.98;;;8.23;;
43676;SDS011;29275;48.800;18.102;2023-12-04T17:10:15;14.48;;;8.57;;
43676;SDS011;29275;48.800;18.102;2023-12-04T17:13:18;16.63;;;9.35;;
43676;SDS011;29275;48.800;18.102;2023-12-04T17:16:22;15.20;;;8.73;;
43676;SDS011;29275;48.800;18.102;2023-12-04T17:19:37;14.30;;;7.80;;
43676;SDS011;29275;48.800;18.102;2023-12-04T17:22:46;13.48;;;8.15;;
43676;SDS011;29275;48.800;18.102;2023-12-04T17:25:50;12.73;;;7.95;;
43676;SDS011;29275;48.800;18.102;2023-12-04T17:29:03;11.93;;;6.60;;
43676;SDS011;29275;48.800;18.102;2023-12-04T17:32:16;12.50;;;7.53;;
43676;SDS011;29275;48.800;18.102;2023-12-04T17:35:27;14.07;;;7.05;;
43676;SDS011;29275;48.800;18.102;2023-12-04T17:38:35;14.32;;;7.32;;
43676;SDS011;29275;48.800;18.102;2023-12-04T17:41:39;11.80;;;6.43;;
43676;SDS011;29275;48.800;18.102;2023-12-04T17:44:56;11.23;;;6.72;;
43676;SDS011;29275;48.800;18.102;2023-12-04T17:48:01;11.80;;;7.00;;
43676;SDS011;29275;48.800;18.102;2023-12-04T17:51:13;12.68;;;7.32;;
43676;SDS011;29275;48.800;18.102;2023-12-04T17:54:31;11.23;;;6.55;;
43676;SDS011;29275;48.800;18.102;2023-12-04T17:57:45;12.48;;;7.68;;
43676;SDS011;29275;48.800;18.102;2023-12-04T18:01:17;14.82;;;7.72;;